Time;durP1;ratioP1;P1;durP2;ratioP2;P2;SDS_P1;SDS_P2;PMS_P1;PMS_P2;Temp;Humidity;BMP_temperature;BMP_pressure;BME280_temperature;BME280_humidity;BME280_pressure;Samples;Min_cycle;Max_cycle;Signal;HPM_P1;HPM_P2
2023/04/11 00:00:39;;;;;;;;;;;16.50;51.20;;;16.85;37.14;98273.78;5033739;27;123806;-73
2023/04/11 00:03:05;;;;;;;;;;;16.60;51.60;;;16.86;37.22;98269.00;5024992;28;114335;-74
2023/04/11 00:05:32;;;;;;;;;;;16.60;51.60;;;16.86;36.95;98263.44;5010543;28;113913;-74
2023/04/11 00:07:58;;;;;;;;;;;16.50;51.50;;;16.86;37.08;98241.91;5008727;28;123955;-74
2023/04/11 00:10:24;;;;;;;;;;;16.60;51.60;;;16.86;37.05;98241.91;5010067;28;124619;-74
2023/04/11 00:12:55;;;;;;;;;;;16.50;51.60;;;16.88;37.21;98230.41;5025202;27;115103;-74
2023/04/11 00:15:25;;;;;;;;;;;16.60;51.90;;;16.89;37.40;98212.47;5006500;28;115079;-74
2023/04/11 00:17:52;;;;;;;;;;;16.50;52.00;;;16.91;37.23;98205.34;5010136;28;124304;-74
2023/04/11 00:20:21;;;;;;;;;;;16.60;51.90;;;16.93;37.46;98202.19;5009727;28;124735;-74
2023/04/11 00:22:47;;;;;;;;;;;16.60;52.10;;;16.95;37.36;98205.41;5010387;28;113789;-73
2023/04/11 00:25:16;;;;;;;;;;;16.60;52.20;;;16.94;37.34;98206.59;4995071;28;112925;-73
2023/04/11 00:27:42;;;;;;;;;;;16.60;52.40;;;16.92;37.45;98208.94;5015971;28;123221;-75
2023/04/11 00:30:09;;;;;;;;;;;16.60;52.40;;;16.91;37.59;98199.75;5008166;28;123825;-74
2023/04/11 00:32:37;;;;;;;;;;;16.50;52.40;;;16.91;37.59;98204.53;5001233;28;114322;-73
2023/04/11 00:35:07;;;;;;;;;;;16.50;52.40;;;16.91;37.71;98196.16;5014206;28;115781;-74
2023/04/11 00:37:34;;;;;;;;;;;16.50;53.20;;;16.91;37.76;98190.59;5005736;28;124345;-78
2023/04/11 00:40:04;;;;;;;;;;;16.50;52.70;;;16.90;37.66;98202.91;5030167;27;124093;-73
2023/04/11 00:42:31;;;;;;;;;;;16.50;52.60;;;16.91;37.68;98213.72;5027498;27;114614;-73
2023/04/11 00:44:57;;;;;;;;;;;16.60;52.80;;;16.93;37.72;98211.38;5009435;28;113961;-72
2023/04/11 00:47:23;;;;;;;;;;;16.60;52.80;;;16.94;37.79;98196.22;5030467;27;124623;-74
2023/04/11 00:49:50;;;;;;;;;;;16.60;52.90;;;16.95;37.64;98189.50;5002807;28;124504;-73
2023/04/11 00:52:16;;;;;;;;;;;16.60;52.90;;;16.97;37.85;98186.31;5008832;28;114459;-73
2023/04/11 00:54:42;;;;;;;;;;;16.60;53.00;;;16.99;37.86;98187.56;5026523;28;112871;-73
2023/04/11 00:57:12;;;;;;;;;;;16.60;53.20;;;17.01;37.99;98178.81;5008703;28;124379;-73
2023/04/11 00:59:38;;;;;;;;;;;16.60;53.30;;;16.99;37.99;98181.97;5033382;27;123912;-73
2023/04/11 01:02:08;;;;;;;;;;;16.60;53.50;;;16.99;38.04;98183.97;5014047;28;115216;-73
2023/04/11 01:04:37;;;;;;;;;;;16.60;53.60;;;16.95;38.12;98186.69;5001916;28;114687;-74
2023/04/11 01:07:04;;;;;;;;;;;16.60;53.70;;;16.91;38.25;98196.16;5003540;28;124876;-75
2023/04/11 01:09:32;;;;;;;;;;;16.60;53.80;;;16.89;38.23;98193.72;5036883;27;123039;-73
2023/04/11 01:12:02;;;;;;;;;;;16.60;53.80;;;16.88;38.33;98196.91;5007511;28;116872;-73
2023/04/11 01:14:29;;;;;;;;;;;16.50;53.70;;;16.89;38.34;98195.72;5001099;28;114331;-73
2023/04/11 01:16:55;;;;;;;;;;;16.60;54.00;;;16.88;38.75;98206.09;5008070;28;124784;-75
2023/04/11 01:19:24;;;;;;;;;;;16.60;54.60;;;16.87;38.86;98206.44;5008767;28;124295;-74
2023/04/11 01:21:52;;;;;;;;;;;16.50;55.10;;;16.84;39.14;98196.03;5019873;28;113817;-74
2023/04/11 01:24:18;;;;;;;;;;;16.50;55.10;;;16.82;39.33;98195.56;5007145;28;113813;-73
2023/04/11 01:26:45;;;;;;;;;;;16.50;55.30;;;16.81;39.41;98194.78;5037694;27;124150;-73
2023/04/11 01:29:11;;;;;;;;;;;16.50;55.70;;;16.78;39.47;98193.53;5008035;28;123037;-74
2023/04/11 01:31:37;;;;;;;;;;;16.50;55.70;;;16.78;39.71;98213.06;4999455;28;114851;-73
2023/04/11 01:34:04;;;;;;;;;;;16.40;55.90;;;16.77;40.52;98222.63;5019726;27;113693;-73
2023/04/11 01:36:31;;;;;;;;;;;16.50;56.60;;;16.75;40.61;98244.44;5022408;27;124332;-73
2023/04/11 01:38:57;;;;;;;;;;;16.40;57.00;;;16.73;41.38;98224.47;5026002;27;122856;-73
2023/04/11 01:41:25;;;;;;;;;;;16.40;58.20;;;16.69;42.13;98218.03;4993446;28;114763;-74
2023/04/11 01:43:51;;;;;;;;;;;16.40;58.60;;;16.66;42.07;98209.59;5010759;28;113022;-73
2023/04/11 01:46:18;;;;;;;;;;;16.40;59.40;;;16.61;42.85;98202.31;5018513;28;122200;-73
2023/04/11 01:48:45;;;;;;;;;;;16.30;60.00;;;16.56;43.15;98205.41;5009668;28;123575;-74
2023/04/11 01:51:11;;;;;;;;;;;16.30;60.60;;;16.53;43.51;98222.88;5009230;28;114469;-77
2023/04/11 01:53:37;;;;;;;;;;;16.30;61.10;;;16.48;43.97;98223.16;5006876;28;114516;-75
2023/04/11 01:56:07;;;;;;;;;;;16.20;61.90;;;16.37;44.50;98231.31;5007328;28;124325;-76
2023/04/11 01:58:33;;;;;;;;;;;16.20;62.30;;;16.29;45.16;98244.28;5018762;28;123449;-75
2023/04/11 02:01:00;;;;;;;;;;;16.10;63.50;;;16.21;46.08;98250.84;5015726;28;114532;-76
2023/04/11 02:03:35;;;;;;;;;;;16.00;64.70;;;16.11;47.55;98257.00;5023735;28;114488;-74
2023/04/11 02:06:03;;;;;;;;;;;15.90;66.80;;;15.96;47.85;98255.03;5009328;28;124244;-74
2023/04/11 02:08:29;;;;;;;;;;;15.70;67.60;;;15.82;48.43;98264.66;5025396;28;122488;-74
2023/04/11 02:10:59;;;;;;;;;;;15.60;68.70;;;15.71;49.26;98273.94;5007481;28;114623;-75
2023/04/11 02:13:26;;;;;;;;;;;15.50;69.90;;;15.61;49.63;98284.41;5010723;28;113382;-74
2023/04/11 02:15:52;;;;;;;;;;;15.30;70.90;;;15.53;49.92;98304.88;5016460;28;123773;-74
2023/04/11 02:18:24;;;;;;;;;;;15.30;71.20;;;15.46;50.79;98316.63;5003452;28;124268;-74
2023/04/11 02:20:52;;;;;;;;;;;15.20;72.90;;;15.27;51.08;98319.28;5038111;27;116209;-73
2023/04/11 02:23:26;;;;;;;;;;;15.00;73.40;;;15.13;51.48;98330.03;5008103;28;113598;-77
2023/04/11 02:25:57;;;;;;;;;;;14.90;73.70;;;14.98;51.92;98332.38;5007496;28;123428;-74
2023/04/11 02:28:23;;;;;;;;;;;14.80;74.80;;;14.84;53.03;98340.31;5008151;28;124126;-76
2023/04/11 02:30:50;;;;;;;;;;;14.60;76.30;;;14.67;53.45;98341.41;5007221;28;114211;-76
2023/04/11 02:33:16;;;;;;;;;;;14.60;77.10;;;14.54;54.38;98343.41;5008440;28;113972;-76
2023/04/11 02:35:52;;;;;;;;;;;14.50;78.80;;;14.42;54.37;98307.25;5006967;28;124755;-77
2023/04/11 02:38:24;;;;;;;;;;;14.30;78.80;;;14.35;55.08;98307.03;5009018;28;124187;-76
2023/04/11 02:40:50;;;;;;;;;;;14.20;80.60;;;14.25;55.14;98308.31;5004803;28;116237;-77
2023/04/11 02:43:17;;;;;;;;;;;14.20;80.90;;;14.19;55.91;98320.03;4998831;28;114974;-75
2023/04/11 02:45:46;;;;;;;;;;;14.10;82.70;;;14.13;55.58;98323.03;5036456;27;124566;-76
2023/04/11 02:48:15;;;;;;;;;;;14.00;82.30;;;14.05;56.31;98323.97;5011098;28;124369;-77
2023/04/11 02:50:41;;;;;;;;;;;13.90;83.80;;;13.97;56.05;98327.66;5028252;27;113697;-78
2023/04/11 02:53:07;;;;;;;;;;;13.90;84.10;;;13.92;56.80;98333.44;5043226;27;113872;-76
2023/04/11 02:55:34;;;;;;;;;;;13.80;85.60;;;13.83;56.64;98330.75;5010591;28;124583;-76
2023/04/11 02:58:00;;;;;;;;;;;13.70;85.40;;;13.76;56.72;98335.28;5010963;28;123953;-76
2023/04/11 03:00:26;;;;;;;;;;;13.60;85.90;;;13.68;56.87;98321.16;5015565;28;114649;-76
2023/04/11 03:02:55;;;;;;;;;;;13.50;86.10;;;13.59;57.17;98325.16;5010091;28;113725;-76
2023/04/11 03:05:22;;;;;;;;;;;13.50;87.10;;;13.50;57.22;98333.59;5012063;28;124310;-76
2023/04/11 03:07:48;;;;;;;;;;;13.40;87.10;;;13.42;57.75;98331.72;5010388;28;124821;-81
2023/04/11 03:10:17;;;;;;;;;;;13.30;88.10;;;13.36;57.94;98327.56;5010521;28;114486;-76
2023/04/11 03:12:48;;;;;;;;;;;13.20;88.50;;;13.30;57.73;98334.47;5012604;28;113747;-76
2023/04/11 03:15:16;;;;;;;;;;;13.10;88.50;;;13.23;57.66;98330.25;5021489;28;124286;-76
2023/04/11 03:17:48;;;;;;;;;;;13.10;88.90;;;13.17;57.97;98334.41;5009984;28;124332;-76
2023/04/11 03:20:18;;;;;;;;;;;13.00;89.10;;;13.13;57.78;98341.78;5012203;28;113963;-75
2023/04/11 03:22:51;;;;;;;;;;;13.00;89.10;;;13.09;57.78;98346.41;5025846;28;113851;-76
2023/04/11 03:25:17;;;;;;;;;;;12.90;89.30;;;13.06;58.21;98338.75;5010146;28;124884;-75
2023/04/11 03:27:49;;;;;;;;;;;12.90;90.00;;;13.03;58.58;98343.03;5010241;28;124167;-75
2023/04/11 03:30:15;;;;;;;;;;;12.90;90.20;;;13.00;58.52;98331.78;5012890;28;114286;-76
2023/04/11 03:32:41;;;;;;;;;;;12.80;90.30;;;12.98;58.36;98307.19;5011760;28;114622;-75
2023/04/11 03:35:17;;;;;;;;;;;12.80;90.30;;;12.99;58.76;98308.78;5032904;27;124267;-77
2023/04/11 03:37:49;;;;;;;;;;;12.80;90.50;;;13.00;58.77;98309.59;5010642;28;123972;-75
2023/04/11 03:40:17;;;;;;;;;;;12.80;90.90;;;12.98;58.59;98303.59;5013216;28;114586;-76
2023/04/11 03:42:47;;;;;;;;;;;12.80;90.70;;;12.95;59.00;98291.22;5033135;27;113512;-76
2023/04/11 03:45:15;;;;;;;;;;;12.80;90.80;;;12.93;58.99;98301.03;4999236;28;124104;-76
2023/04/11 03:47:42;;;;;;;;;;;12.70;90.80;;;12.89;59.01;98316.72;5006961;28;123928;-75
2023/04/11 03:50:11;;;;;;;;;;;12.70;91.00;;;12.85;59.48;98313.00;5009158;28;115113;-75
2023/04/11 03:52:42;;;;;;;;;;;12.70;91.30;;;12.80;59.34;98302.94;5042643;27;113771;-76
2023/04/11 03:55:11;;;;;;;;;;;12.60;91.20;;;12.79;59.33;98320.72;5009765;28;124938;-79
2023/04/11 03:57:40;;;;;;;2.70;1.30;;;12.60;91.30;;;12.77;59.73;98323.03;5008541;28;125020;-76
2023/04/11 04:00:13;;;;;;;3.37;1.47;;;12.60;91.40;;;12.75;59.40;98325.31;5009825;28;114835;-75
2023/04/11 04:02:40;;;;;;;1.57;0.90;;;12.50;91.40;;;12.74;59.42;98327.28;5009222;28;114047;-76
2023/04/11 04:05:06;;;;;;;3.83;1.30;;;12.70;91.40;;;12.79;59.59;98348.44;5015409;28;124061;-76
2023/04/11 04:07:34;;;;;;;2.43;1.37;;;12.50;91.60;;;12.81;59.37;98340.59;5010789;28;123806;-76
2023/04/11 04:10:03;;;;;;;1.80;1.00;;;12.50;91.50;;;12.81;59.59;98348.91;5009801;28;114210;-76
2023/04/11 04:12:30;;;;;;;;;;;12.50;91.60;;;12.79;59.43;98343.72;5013153;28;114512;-75
2023/04/11 04:14:56;;;;;;;;;;;12.50;91.50;;;12.77;59.52;98337.69;5027595;28;123634;-76
2023/04/11 04:17:29;;;;;;;2.90;1.75;;;12.50;91.80;;;12.71;59.61;98347.38;5009232;28;123955;-75
2023/04/11 04:19:55;;;;;;;5.63;1.30;;;12.60;91.80;;;12.69;59.70;98349.66;5014273;28;115103;-75
2023/04/11 04:22:22;;;;;;;2.33;1.17;;;12.50;91.80;;;12.68;60.04;98353.59;5025073;28;115002;-77
2023/04/11 04:24:51;;;;;;;2.97;1.20;;;12.40;92.00;;;12.65;60.18;98365.31;5008339;28;124110;-76
2023/04/11 04:27:18;;;;;;;2.97;1.37;;;12.40;92.20;;;12.62;60.13;98366.00;4996554;28;124297;-76
2023/04/11 04:29:52;;;;;;;2.47;1.20;;;12.40;92.30;;;12.60;60.56;98363.59;5024147;28;114303;-76
2023/04/11 04:32:22;;;;;;;4.53;1.57;;;12.50;92.50;;;12.60;60.60;98362.78;4992397;28;113000;-77
2023/04/11 04:34:54;;;;;;;2.13;1.20;;;12.30;92.40;;;12.61;60.39;98367.16;5038808;27;124111;-75
2023/04/11 04:37:29;;;;;;;2.10;1.37;;;12.30;92.60;;;12.56;60.42;98375.66;5009341;28;124471;-76
2023/04/11 04:40:06;;;;;;;2.50;1.23;;;12.30;92.60;;;12.51;60.86;98386.94;5011155;28;114384;-76
2023/04/11 04:42:35;;;;;;;1.77;1.17;;;12.30;92.80;;;12.46;60.77;98395.44;5001650;28;113819;-75
2023/04/11 04:45:04;;;;;;;3.87;1.20;;;12.20;92.90;;;12.36;60.86;98405.78;5008280;28;123893;-76
2023/04/11 04:47:34;;;;;;;1.50;1.00;;;12.10;92.80;;;12.28;60.83;98428.78;5009910;28;123997;-76
2023/04/11 04:50:09;;;;;;;3.03;1.03;;;12.00;92.70;;;12.22;60.36;98419.03;5011645;28;113275;-77
2023/04/11 04:52:41;;;;;;;1.80;1.30;;;11.90;92.70;;;12.15;60.38;98425.09;5009768;28;113887;-78
2023/04/11 04:55:08;;;;;;;1.50;1.00;;;11.90;92.60;;;12.11;60.34;98421.34;5010367;28;123693;-76
2023/04/11 04:57:34;;;;;;;1.60;1.00;;;12.00;92.80;;;12.11;60.17;98424.13;5007879;28;124091;-76
2023/04/11 05:00:10;;;;;;;1.83;1.07;;;11.80;92.60;;;12.11;60.08;98439.94;5004305;28;115224;-78
2023/04/11 05:02:42;;;;;;;1.97;0.90;;;11.80;92.40;;;12.09;59.53;98442.22;5033207;27;113969;-73
2023/04/11 05:05:10;;;;;;;1.23;1.07;;;11.80;92.30;;;12.04;59.75;98457.06;5025495;27;124136;-75
2023/04/11 05:07:37;;;;;;;3.40;1.50;;;11.80;92.30;;;12.01;59.72;98466.03;5006326;28;122798;-76
2023/04/11 05:10:11;;;;;;;1.20;0.97;;;11.80;92.40;;;11.97;60.37;98464.25;5037523;27;115204;-75
2023/04/11 05:12:37;;;;;;;1.73;0.90;;;11.70;92.60;;;11.92;60.19;98498.44;5005751;28;115205;-76
2023/04/11 05:15:10;;;;;;;2.50;1.10;;;11.60;92.60;;;11.84;59.73;98491.75;4997555;28;123959;-75
2023/04/11 05:17:38;;;;;;;3.23;1.10;;;11.60;92.40;;;11.73;59.81;98501.53;5023254;27;123379;-76
2023/04/11 05:20:07;;;;;;;7.20;1.30;;;11.50;92.30;;;11.64;59.89;98503.53;5016829;27;114197;-75
2023/04/11 05:22:38;;;;;;;4.30;1.27;;;11.40;92.30;;;11.56;60.01;98494.09;4998614;28;114048;-76
2023/04/11 05:25:07;;;;;;;5.03;1.30;;;11.30;92.20;;;11.47;59.77;98499.63;4992573;28;123781;-75
2023/04/11 05:27:36;;;;;;;1.00;0.90;;;11.30;92.20;;;11.38;59.53;98486.94;4997227;28;123658;-76
2023/04/11 05:30:05;;;;;;;1.30;1.10;;;11.10;92.00;;;11.32;59.94;98489.03;5025714;27;113271;-76
2023/04/11 05:32:37;;;;;;;2.27;1.13;;;11.10;92.10;;;11.27;59.79;98483.66;5005681;28;113940;-74
2023/04/11 05:35:04;;;;;;;3.10;1.40;;;11.10;92.00;;;11.21;59.42;98479.44;5008795;28;124126;-75
2023/04/11 05:37:31;;;;;;;1.53;1.03;;;11.00;91.70;;;11.17;58.79;98467.38;4993883;28;123842;-74
2023/04/11 05:40:00;;;;;;;4.17;1.43;;;11.00;91.40;;;11.12;58.68;98484.13;4988898;28;113525;-73
2023/04/11 05:42:27;;;;;;;1.80;1.10;;;10.90;91.40;;;11.06;58.62;98473.22;5002176;28;114094;-77
2023/04/11 05:44:56;;;;;;;2.10;1.40;;;10.90;91.40;;;11.01;58.72;98476.16;5028793;27;123656;-73
2023/04/11 05:47:27;;;;;;;3.97;1.30;;;10.80;91.30;;;11.00;58.54;98462.66;5010131;27;123915;-73
2023/04/11 05:49:54;;;;;;;3.13;1.20;;;10.70;91.20;;;10.97;58.61;98474.38;4992565;28;114354;-75
2023/04/11 05:52:28;;;;;;;3.53;1.20;;;10.70;91.20;;;10.95;58.78;98460.88;4992258;28;114138;-76
2023/04/11 05:54:54;;;;;;;3.33;1.10;;;10.70;91.30;;;10.94;58.96;98462.00;5002058;28;124102;-76
2023/04/11 05:57:27;;;;;;;2.00;1.40;;;11.20;91.60;;;10.97;58.72;98477.94;5002881;28;123487;-76
2023/04/11 05:59:53;;;;;;;7.40;1.50;;;11.30;91.60;;;10.95;58.38;98480.22;4986912;28;115557;-75
2023/04/11 06:02:20;;;;;;;2.67;1.33;;;10.70;91.30;;;10.95;58.99;98482.16;5014481;28;116099;-74
2023/04/11 06:04:49;;;;;;;4.37;1.43;;;10.70;91.30;;;10.95;59.14;98499.56;4994783;28;124096;-74
2023/04/11 06:07:16;;;;;;;1.87;1.13;;;10.70;91.30;;;10.96;58.88;98490.16;5007578;28;122922;-74
2023/04/11 06:09:50;;;;;;;2.60;1.10;;;10.70;91.40;;;10.96;58.42;98489.31;5021377;27;113389;-73
2023/04/11 06:12:19;;;;;;;3.07;1.20;;;10.80;91.30;;;10.94;58.75;98486.88;5020236;27;113451;-75
2023/04/11 06:14:51;;;;;;;2.73;1.20;;;11.50;91.60;;;10.95;58.52;98501.53;4986790;28;124250;-75
2023/04/11 06:17:18;;;;;;;4.60;1.27;;;10.60;91.20;;;10.96;58.50;98489.31;5022389;27;123934;-79
2023/04/11 06:19:48;;;;;;;1.50;0.93;;;10.70;91.30;;;10.97;58.20;98486.25;5019529;27;113325;-75
2023/04/11 06:22:15;;;;;;;5.87;1.20;;;10.70;91.20;;;10.97;58.20;98497.28;4996944;28;113641;-74
2023/04/11 06:24:41;;;;;;;1.47;1.10;;;10.70;91.20;;;10.97;58.61;98502.81;4989767;28;124573;-75
2023/04/11 06:27:16;;;;;;;2.70;1.20;;;10.70;91.20;;;11.00;58.54;98502.19;5028849;27;124419;-76
2023/04/11 06:29:49;;;;;;;2.00;1.20;;;10.70;91.30;;;11.00;58.36;98504.94;5013823;28;113920;-75
2023/04/11 06:32:16;;;;;;;2.10;1.27;;;10.80;91.40;;;11.03;58.65;98500.72;5026458;28;114142;-73
2023/04/11 06:34:42;;;;;;;1.40;1.20;;;10.70;91.30;;;11.09;58.85;98498.59;5010127;28;124571;-73
2023/04/11 06:37:09;;;;;;;5.67;1.40;;;10.80;91.40;;;11.13;58.77;98510.66;5021658;28;123793;-71
2023/04/11 06:39:37;;;;;;;;;;;10.80;91.40;;;11.16;58.45;98527.41;5013166;28;114080;-68
2023/04/11 06:42:03;;;;;;;;;;;10.80;91.50;;;11.16;58.58;98545.97;5014910;28;113623;-68
2023/04/11 06:44:30;;;;;;;;;;;10.80;91.60;;;11.15;59.04;98552.59;5008836;28;124804;-69
2023/04/11 06:46:57;;;;;;;;;;;10.80;91.60;;;11.13;58.79;98541.88;5010571;28;123776;-70
2023/04/11 06:49:25;;;;;;;;;;;10.80;91.60;;;11.12;58.51;98544.97;5045137;27;114604;-68
2023/04/11 06:51:53;;;;;;;;;;;10.80;91.60;;;11.09;58.75;98554.72;5030974;27;114467;-68
2023/04/11 06:54:20;;;;;;;;;;;10.70;91.40;;;11.12;58.72;98561.56;5006721;28;124246;-69
2023/04/11 06:56:51;;;;;;;;;;;10.70;91.50;;;11.11;58.64;98538.63;5026132;27;123686;-69
2023/04/11 06:59:20;;;;;;;;;;;10.80;91.50;;;11.15;58.23;98558.13;5009838;28;114469;-69
2023/04/11 07:01:49;;;;;;;;;;;10.80;91.50;;;11.25;58.67;98566.13;5039500;27;113906;-69
2023/04/11 07:04:15;;;;;;;;;;;10.80;91.60;;;11.33;58.55;98554.28;5008006;28;124374;-69
2023/04/11 07:06:44;;;;;;;;;;;10.90;91.50;;;11.38;58.09;98556.88;5005455;28;124012;-76
2023/04/11 07:09:12;;;;;;;;;;;11.00;91.50;;;11.41;58.04;98561.75;5001069;28;113929;-75
2023/04/11 07:11:45;;;;;;;;;;;11.00;91.40;;;11.46;58.00;98563.56;4993346;28;112575;-74
2023/04/11 07:14:11;;;;;;;;;;;11.00;91.30;;;11.52;57.89;98566.97;5029983;27;124183;-75
2023/04/11 07:16:42;;;;;;;;;;;11.10;91.30;;;11.57;57.80;98567.63;4999443;28;123917;-75
2023/04/11 07:19:09;;;;;;;;;;;11.10;91.20;;;11.59;57.39;98581.16;5027783;28;113448;-77
2023/04/11 07:21:37;;;;;;;;;;;11.10;91.10;;;11.60;57.02;98586.34;5029112;27;114600;-75
2023/04/11 07:24:05;;;;;;;;;;;11.20;91.00;;;11.62;57.57;98588.81;4997822;28;123652;-75
2023/04/11 07:26:37;;;;;;;;;;;11.20;91.00;;;11.64;57.75;98589.31;4996123;28;123977;-76
2023/04/11 07:29:04;;;;;;;;;;;11.20;91.00;;;11.66;57.49;98600.84;4998373;28;114602;-78
2023/04/11 07:31:31;;;;;;;;;;;11.30;91.00;;;11.70;57.26;98601.84;4992676;28;113788;-76
2023/04/11 07:33:57;;;;;;;;;;;11.30;91.00;;;11.74;57.00;98591.75;5000787;28;124121;-77
2023/04/11 07:36:23;;;;;;;;;;;11.40;90.90;;;11.77;56.88;98596.63;5017806;28;125603;-75
2023/04/11 07:38:53;;;;;;;;;;;11.40;90.80;;;11.79;56.67;98597.09;5023542;27;114329;-75
2023/04/11 07:41:19;;;;;;;;;;;11.40;90.70;;;11.81;56.36;98605.91;4997205;28;114414;-74
2023/04/11 07:43:45;;;;;;;;;;;11.40;90.70;;;11.81;56.44;98592.06;5009072;28;124167;-77
2023/04/11 07:46:16;;;;;;;;;;;11.40;90.50;;;11.82;55.89;98592.88;5040633;27;124111;-77
2023/04/11 07:48:43;;;;;;;;;;;11.40;90.30;;;11.84;55.57;98607.22;4998213;28;114270;-76
2023/04/11 07:51:09;;;;;;;;;;;11.40;90.10;;;11.85;55.18;98595.81;5007473;28;112720;-73
2023/04/11 07:53:36;;;;;;;;;;;11.40;89.70;;;11.89;54.78;98599.59;5032277;27;123451;-73
2023/04/11 07:56:06;;;;;;;;;;;11.40;89.60;;;11.93;54.47;98603.34;5015772;28;123953;-75
2023/04/11 07:58:32;;;;;;;;;;;11.50;89.20;;;11.93;54.22;98610.84;4996767;28;114657;-75
2023/04/11 08:00:58;;;;;;;;;;;11.50;89.30;;;11.98;53.69;98587.69;5000719;28;113960;-74
2023/04/11 08:03:29;;;;;;;;;;;11.50;88.30;;;12.02;54.05;98591.44;4999805;28;124531;-75
2023/04/11 08:05:55;;;;;;;;;;;11.50;88.40;;;12.03;53.86;98598.59;4998399;28;123997;-75
2023/04/11 08:08:21;;;;;;;;;;;11.50;87.80;;;12.08;53.51;98612.28;5002840;28;114592;-76
2023/04/11 08:10:47;;;;;;;;;;;11.60;88.20;;;12.13;53.40;98612.13;5014567;28;113729;-75
2023/04/11 08:13:20;;;;;;;;;;;11.60;87.10;;;12.19;52.32;98612.75;4997791;28;124808;-74
2023/04/11 08:15:46;;;;;;;;;;;11.70;86.50;;;12.21;52.47;98619.59;5003372;28;124856;-77
2023/04/11 08:18:12;;;;;;;;;;;11.70;86.20;;;12.18;51.53;98630.53;5000920;28;114330;-75
2023/04/11 08:20:41;;;;;;;;;;;11.70;85.20;;;12.11;51.63;98615.19;5004241;28;113481;-77
2023/04/11 08:23:09;;;;;;;;;;;11.70;84.60;;;12.11;51.49;98622.69;4999416;28;123310;-74
2023/04/11 08:25:36;;;;;;;;;;;11.70;84.70;;;12.10;51.00;98621.91;4996893;28;124187;-76
2023/04/11 08:28:05;;;;;;;;;;;11.70;83.90;;;12.10;51.59;98623.84;5036419;27;114933;-75
2023/04/11 08:30:34;;;;;;;;;;;11.70;84.20;;;12.11;51.24;98619.94;4990625;28;114058;-75
2023/04/11 08:33:00;;;;;;;;;;;11.70;84.20;;;12.09;50.89;98619.44;5021202;27;124450;-75
2023/04/11 08:35:34;;;;;;;4.40;1.45;;;11.70;83.00;;;12.11;50.27;98620.75;5009622;28;123987;-77
2023/04/11 08:38:08;;;;;;;6.50;1.70;;;11.70;82.80;;;12.14;50.66;98622.03;4995816;28;114275;-76
2023/04/11 08:40:35;;;;;;;8.07;2.03;;;11.70;82.50;;;12.17;49.94;98621.41;5002973;28;114069;-75
2023/04/11 08:43:10;;;;;;;;;;;12.00;82.80;;;12.22;49.95;98624.00;5009198;28;123734;-74
2023/04/11 08:45:41;;;;;;;3.67;1.30;;;11.70;81.90;;;12.29;49.78;98617.97;5043756;27;123139;-75
2023/04/11 08:48:08;;;;;;;5.77;1.80;;;11.80;82.10;;;12.32;49.82;98618.13;5009402;28;113503;-74
2023/04/11 08:50:34;;;;;;;14.87;2.07;;;11.90;82.00;;;12.33;49.86;98635.53;5021122;28;113343;-75
2023/04/11 08:53:07;;;;;;;4.57;1.50;;;11.90;81.80;;;12.35;48.33;98628.53;5003112;28;124061;-74
2023/04/11 08:55:33;;;;;;;3.67;1.77;;;12.00;79.90;;;12.37;47.14;98614.38;4998012;28;123835;-75
2023/04/11 08:58:01;;;;;;;7.37;1.80;;;12.00;78.20;;;12.37;47.60;98615.19;4980757;28;113771;-75
2023/04/11 09:00:32;;;;;;;4.37;1.70;;;11.90;78.30;;;12.43;48.14;98617.78;5004226;28;115073;-74
2023/04/11 09:03:07;;;;;;;4.50;2.07;;;12.00;78.90;;;12.51;47.94;98622.47;5029528;27;124696;-74
2023/04/11 09:05:39;;;;;;;6.33;2.20;;;12.10;79.00;;;12.63;47.07;98621.78;5014058;28;123989;-74
2023/04/11 09:08:10;;;;;;;2.80;1.23;;;12.20;78.10;;;12.69;46.93;98628.81;5018033;28;113627;-74
2023/04/11 09:10:44;;;;;;;2.67;1.40;;;12.20;78.10;;;12.73;46.77;98611.16;5000909;28;114554;-74
2023/04/11 09:13:31;;;;;;;4.30;1.60;;;12.20;77.70;;;12.80;46.88;98617.00;5002580;28;124406;-74
2023/04/11 09:16:08;;;;;;;5.90;1.83;;;12.30;77.60;;;12.87;46.08;98621.22;4994932;28;123741;-73
2023/04/11 09:18:42;;;;;;;5.20;1.53;;;12.40;76.70;;;12.91;46.00;98630.53;5011514;28;115178;-74
2023/04/11 09:21:19;;;;;;;3.77;2.03;;;12.40;76.20;;;12.94;45.31;98611.25;5006165;28;114654;-72
2023/04/11 09:23:45;;;;;;;7.67;1.73;;;12.50;75.60;;;12.96;45.40;98635.88;4993150;28;123859;-73
2023/04/11 09:26:24;;;;;;;6.83;1.77;;;12.50;75.40;;;12.97;45.20;98607.81;4989939;28;124081;-75
2023/04/11 09:28:54;;;;;;;3.30;1.97;;;12.50;75.30;;;12.97;45.32;98616.13;5005091;28;114890;-73
2023/04/11 09:31:44;;;;;;;4.37;1.77;;;12.50;75.10;;;12.99;45.46;98613.84;4992956;28;114361;-73
2023/04/11 09:34:22;;;;;;;5.13;1.87;;;12.60;75.90;;;13.04;45.49;98621.16;4996584;28;124036;-73
2023/04/11 09:36:55;;;;;;;18.63;1.60;;;12.60;75.30;;;13.11;45.27;98620.63;4999304;28;123798;-73
2023/04/11 09:39:21;;;;;;;5.43;2.10;;;12.70;75.30;;;13.16;45.27;98634.31;4983062;28;114677;-73
2023/04/11 09:41:48;;;;;;;2.00;1.30;;;12.70;74.80;;;13.18;45.11;98638.38;4966448;28;113062;-73
2023/04/11 09:44:23;;;;;;;6.00;1.67;;;12.70;74.50;;;13.24;44.94;98625.97;4978446;28;124094;-75
2023/04/11 09:46:57;;;;;;;5.10;2.27;;;12.80;74.40;;;13.30;44.65;98617.47;4973720;28;124099;-73
2023/04/11 09:49:24;;;;;;;4.97;1.90;;;12.90;74.20;;;13.39;44.52;98623.78;4978186;28;114263;-75
2023/04/11 09:51:54;;;;;;;;;;;13.00;73.80;;;13.45;43.76;98619.66;4974957;28;114005;-75
2023/04/11 09:54:23;;;;;;;;;;;12.90;72.80;;;13.46;43.25;98627.69;4980882;28;124144;-74
2023/04/11 09:56:56;;;;;;;;;;;13.00;71.90;;;13.47;42.65;98634.03;4975187;28;124215;-75
2023/04/11 09:59:31;;;;;;;;;;;13.00;71.10;;;13.46;42.68;98613.78;4968930;28;114531;-74
2023/04/11 10:01:57;;;;;;;;;;;13.00;70.70;;;13.46;42.98;98610.22;4984874;28;113896;-76
2023/04/11 10:04:33;;;;;;;;;;;13.00;70.90;;;13.51;43.16;98607.22;4971237;28;124956;-75
2023/04/11 10:07:11;;;;;;;;;;;13.10;72.00;;;13.56;42.75;98625.66;5003314;28;123574;-75
2023/04/11 10:09:44;;;;;;;;;;;13.10;71.40;;;13.57;42.58;98630.88;5000628;28;115265;-73
2023/04/11 10:12:11;;;;;;;;;;;13.20;70.60;;;13.58;42.84;98617.81;4976120;28;115271;-75
2023/04/11 10:14:37;;;;;;;;;;;13.20;70.40;;;13.58;42.68;98618.59;4980341;28;123655;-75
2023/04/11 10:17:09;;;;;;;;;;;13.20;70.50;;;13.61;42.59;98620.69;4976190;28;124586;-77
2023/04/11 10:19:36;;;;;;;;;;;13.20;70.10;;;13.65;42.52;98618.09;4974776;28;114620;-75
2023/04/11 10:22:05;;;;;;;;;;;13.20;70.20;;;13.66;42.80;98612.19;4976582;28;113804;-75
2023/04/11 10:24:34;;;;;;;;;;;13.30;70.60;;;13.72;42.97;98629.44;5008011;28;124586;-75
2023/04/11 10:27:07;;;;;;;;;;;13.30;70.80;;;13.76;42.90;98629.59;4973632;28;124550;-75
2023/04/11 10:29:49;;;;;;;;;;;13.30;70.70;;;13.73;43.14;98656.09;4992483;28;114118;-75
2023/04/11 10:32:20;;;;;;;;;;;12.60;70.10;;;13.69;43.58;98647.59;4989779;28;114487;-78
2023/04/11 10:34:53;;;;;;;;;;;13.30;71.50;;;13.64;44.41;98642.25;4976603;28;124864;-75
2023/04/11 10:37:35;;;;;;;;;;;13.20;72.50;;;13.58;45.00;98651.09;4988467;28;123828;-75
2023/04/11 10:40:08;;;;;;;;;;;13.30;73.50;;;13.54;45.38;98628.78;5001381;28;114780;-75
2023/04/11 10:42:34;;;;;;;;;;;13.20;73.80;;;13.52;45.57;98624.72;5024612;27;113691;-77
2023/04/11 10:45:39;;;;;;;;;;;13.20;74.10;;;13.53;45.43;98638.22;5009455;28;124374;-75
2023/04/11 10:48:09;;;;;;;;;;;13.20;74.30;;;13.52;45.40;98644.13;4985857;28;124163;-74
2023/04/11 10:50:41;;;;;;;;;;;13.10;74.20;;;13.50;45.47;98652.78;4985175;28;114584;-75
2023/04/11 10:53:13;;;;;;;;;;;13.10;74.20;;;13.50;45.90;98633.34;4948598;28;113895;-75
2023/04/11 10:55:45;;;;;;;;;;;13.10;74.50;;;13.53;45.55;98632.69;4975450;28;124025;-75